createdAt,value
2023-03-17T00:01:21.963Z,101165.75
2023-03-17T00:04:26.867Z,101159.13
2023-03-17T00:07:29.636Z,101161.22
2023-03-17T00:10:33.195Z,101159.75
2023-03-17T00:13:36.061Z,101156.19
2023-03-17T00:16:42.460Z,101158.28
2023-03-17T00:19:45.748Z,101161.69
2023-03-17T00:22:49.245Z,101168.34
2023-03-17T00:25:53.787Z,101154.59
2023-03-17T00:28:57.153Z,101141.47
2023-03-17T00:32:00.113Z,101145.03
2023-03-17T00:35:06.306Z,101151.16
2023-03-17T00:38:17.146Z,101137.47
2023-03-17T00:41:20.642Z,101132.63
2023-03-17T00:44:24.368Z,101142.25
2023-03-17T00:47:27.913Z,101140.62
2023-03-17T00:50:30.865Z,101139.22
2023-03-17T00:53:34.447Z,101134.16
2023-03-17T00:56:39.006Z,101140.97
2023-03-17T00:59:42.844Z,101140.91
2023-03-17T01:02:47.399Z,101137.47
2023-03-17T01:05:52.969Z,101140.00
2023-03-17T01:08:56.476Z,101139.50
2023-03-17T01:12:00.812Z,101145.97
2023-03-17T01:15:04.012Z,101137.19
2023-03-17T01:18:07.057Z,101140.41
2023-03-17T01:21:09.890Z,101137.19
2023-03-17T01:24:13.062Z,101139.31
2023-03-17T01:27:16.730Z,101142.78
2023-03-17T01:30:19.764Z,101146.31
2023-03-17T01:33:22.607Z,101147.06
2023-03-17T01:36:25.719Z,101146.97
2023-03-17T01:39:28.643Z,101139.88
2023-03-17T01:42:31.866Z,101142.28
2023-03-17T01:46:12.489Z,101136.59
2023-03-17T01:49:17.878Z,101144.47
2023-03-17T01:52:23.266Z,101127.94
2023-03-17T01:55:26.530Z,101122.97
2023-03-17T01:58:29.694Z,101135.03
2023-03-17T02:01:42.889Z,101147.09
2023-03-17T02:04:46.049Z,101144.66
2023-03-17T02:07:49.519Z,101157.03
2023-03-17T02:10:53.044Z,101155.19
2023-03-17T02:13:55.795Z,101150.53
2023-03-17T02:16:58.971Z,101149.59
2023-03-17T02:20:17.349Z,101149.37
2023-03-17T02:23:25.143Z,101144.28
2023-03-17T02:26:31.820Z,101146.19
2023-03-17T02:29:36.241Z,101138.37
2023-03-17T02:32:39.814Z,101151.63
2023-03-17T02:35:43.252Z,101160.50
2023-03-17T02:38:46.167Z,101166.47
2023-03-17T02:41:49.320Z,101162.59
2023-03-17T02:44:52.301Z,101154.94
2023-03-17T02:47:57.697Z,101148.16
2023-03-17T02:51:00.652Z,101137.78
2023-03-17T02:54:04.544Z,101148.22
2023-03-17T02:57:08.686Z,101142.03
2023-03-17T03:00:14.463Z,101130.31
2023-03-17T03:03:17.391Z,101142.37
2023-03-17T03:06:20.765Z,101148.28
2023-03-17T03:09:24.430Z,101151.56
2023-03-17T03:12:27.483Z,101145.34
2023-03-17T03:15:30.542Z,101149.47
2023-03-17T03:18:33.786Z,101149.69
2023-03-17T03:21:37.388Z,101145.84
2023-03-17T03:24:40.961Z,101154.88
2023-03-17T03:27:43.717Z,101144.00
2023-03-17T03:30:47.134Z,101152.22
2023-03-17T03:33:50.381Z,101136.69
2023-03-17T03:36:53.609Z,101133.34
2023-03-17T03:39:56.543Z,101136.41
2023-03-17T03:42:59.911Z,101131.44
2023-03-17T03:46:05.665Z,101136.75
2023-03-17T03:49:08.882Z,101146.88
2023-03-17T03:52:11.655Z,101151.47
2023-03-17T03:55:16.899Z,101148.50
2023-03-17T03:58:19.734Z,101160.06
2023-03-17T04:01:23.116Z,101155.16
2023-03-17T04:04:26.193Z,101173.31
2023-03-17T04:07:29.704Z,101158.31
2023-03-17T04:10:33.482Z,101168.69
2023-03-17T04:13:36.699Z,101161.91
2023-03-17T04:16:41.618Z,101160.56
2023-03-17T04:19:46.150Z,101160.13
2023-03-17T04:22:49.538Z,101159.69
2023-03-17T04:25:55.441Z,101160.19
2023-03-17T04:28:59.309Z,101154.50
2023-03-17T04:32:02.886Z,101157.28
2023-03-17T04:35:07.055Z,101165.28
2023-03-17T04:38:13.412Z,101160.69
2023-03-17T04:41:16.780Z,101155.28
2023-03-17T04:44:19.630Z,101155.63
2023-03-17T04:47:22.594Z,101150.75
2023-03-17T04:50:25.439Z,101153.47
2023-03-17T04:53:28.919Z,101153.25
2023-03-17T04:56:32.210Z,101148.91
2023-03-17T04:59:35.602Z,101149.34
2023-03-17T05:02:39.312Z,101147.66
2023-03-17T05:05:42.404Z,101143.41
2023-03-17T05:08:45.448Z,101135.06
2023-03-17T05:11:48.623Z,101145.59
2023-03-17T05:14:51.577Z,101152.00
2023-03-17T05:17:54.663Z,101145.97
2023-03-17T05:20:57.436Z,101143.19
2023-03-17T05:24:00.548Z,101136.44
2023-03-17T05:27:03.357Z,101132.25
2023-03-17T05:30:07.156Z,101132.47
2023-03-17T05:33:10.360Z,101137.25
2023-03-17T05:36:13.713Z,101137.47
2023-03-17T05:39:16.736Z,101149.44
2023-03-17T05:42:20.223Z,101141.53
2023-03-17T05:45:23.180Z,101143.06
2023-03-17T05:48:26.800Z,101137.25
2023-03-17T05:51:29.651Z,101133.78
2023-03-17T05:54:32.674Z,101151.75
2023-03-17T05:57:35.730Z,101145.06
2023-03-17T06:00:39.084Z,101141.56
2023-03-17T06:03:42.339Z,101159.37
2023-03-17T06:06:45.000Z,101149.41
2023-03-17T06:09:48.127Z,101158.31
2023-03-17T06:12:51.230Z,101157.16
2023-03-17T06:15:54.467Z,101158.09
2023-03-17T06:18:57.780Z,101164.72
2023-03-17T06:22:01.162Z,101172.97
2023-03-17T06:25:05.068Z,101161.12
2023-03-17T06:28:08.309Z,101161.72
2023-03-17T06:31:11.348Z,101168.69
2023-03-17T06:34:14.486Z,101171.94
2023-03-17T06:37:17.265Z,101167.91
2023-03-17T06:40:20.855Z,101171.12
2023-03-17T06:43:25.099Z,101168.53
2023-03-17T06:46:28.369Z,101175.34
2023-03-17T06:49:31.462Z,101167.84
2023-03-17T06:52:34.542Z,101185.84
2023-03-17T06:55:37.284Z,101178.75
2023-03-17T06:58:40.435Z,101185.91
2023-03-17T07:01:43.235Z,101187.94
2023-03-17T07:04:47.204Z,101193.63
2023-03-17T07:07:50.347Z,101193.13
2023-03-17T07:10:57.506Z,101197.28
2023-03-17T07:14:00.522Z,101201.94
2023-03-17T07:17:05.119Z,101198.78
2023-03-17T07:20:08.590Z,101204.97
2023-03-17T07:23:20.194Z,101207.84
2023-03-17T07:26:22.969Z,101214.44
2023-03-17T07:29:27.391Z,101204.91
2023-03-17T07:32:30.787Z,101225.81
2023-03-17T07:35:34.866Z,101217.31
2023-03-17T07:38:38.068Z,101223.47
2023-03-17T07:41:41.567Z,101210.66
2023-03-17T07:44:45.408Z,101221.03
2023-03-17T07:47:49.217Z,101220.37
2023-03-17T07:50:52.619Z,101214.28
2023-03-17T07:54:04.141Z,101227.88
2023-03-17T07:57:07.140Z,101213.59
2023-03-17T08:00:11.169Z,101213.50
2023-03-17T08:03:14.027Z,101202.31
2023-03-17T08:06:17.247Z,101194.62
2023-03-17T08:09:21.432Z,101201.56
2023-03-17T08:12:25.839Z,101209.00
2023-03-17T08:15:28.616Z,101204.44
2023-03-17T08:18:32.129Z,101199.31
2023-03-17T08:21:35.104Z,101197.06
2023-03-17T08:24:39.932Z,101199.56
2023-03-17T08:27:43.175Z,101191.53
2023-03-17T08:30:50.389Z,101197.34
2023-03-17T08:33:57.390Z,101188.09
2023-03-17T08:37:02.089Z,101181.94
2023-03-17T08:40:06.144Z,101186.59
2023-03-17T08:43:09.355Z,101177.22
2023-03-17T08:46:20.152Z,101189.06
2023-03-17T08:49:23.473Z,101195.28
2023-03-17T08:52:27.876Z,101188.03
2023-03-17T08:55:31.004Z,101203.06
2023-03-17T08:58:35.207Z,101210.25
2023-03-17T09:01:40.447Z,101191.66
2023-03-17T09:04:43.382Z,101194.53
2023-03-17T09:07:46.546Z,101186.91
2023-03-17T09:10:49.897Z,101193.47
2023-03-17T09:13:53.906Z,101188.50
2023-03-17T09:16:57.112Z,101184.12
2023-03-17T09:20:00.123Z,101183.16
2023-03-17T09:23:08.287Z,101186.28
2023-03-17T09:26:13.034Z,101184.25
2023-03-17T09:29:15.763Z,101183.84
2023-03-17T09:32:19.046Z,101180.09
2023-03-17T09:35:22.689Z,101177.53
2023-03-17T09:38:27.855Z,101171.78
2023-03-17T09:41:33.802Z,101169.59
2023-03-17T09:44:59.125Z,101171.69
2023-03-17T09:48:28.883Z,101170.28
2023-03-17T09:51:32.794Z,101156.44
2023-03-17T09:54:38.346Z,101152.88
2023-03-17T09:57:41.805Z,101166.28
2023-03-17T10:00:44.736Z,101153.69
2023-03-17T10:03:48.254Z,101134.38
2023-03-17T10:06:52.637Z,101142.03
2023-03-17T10:10:05.365Z,101150.75
2023-03-17T10:13:17.801Z,101130.78
2023-03-17T10:16:41.858Z,101138.81
2023-03-17T10:20:01.009Z,101134.25
2023-03-17T10:23:13.419Z,101127.78
2023-03-17T10:26:29.538Z,101138.66
2023-03-17T10:29:32.896Z,101131.53
2023-03-17T10:32:38.408Z,101128.69
2023-03-17T10:35:44.986Z,101131.59
2023-03-17T10:38:52.898Z,101133.59
2023-03-17T10:42:08.115Z,101131.84
2023-03-17T10:45:28.083Z,101121.75
2023-03-17T10:48:36.415Z,101129.63
2023-03-17T10:51:40.839Z,101118.94
2023-03-17T10:54:48.439Z,101122.00
2023-03-17T10:57:56.932Z,101113.03
2023-03-17T11:01:06.168Z,101115.78
2023-03-17T11:04:32.200Z,101117.50
2023-03-17T11:07:40.591Z,101097.28
2023-03-17T11:10:44.596Z,101085.22
2023-03-17T11:13:48.320Z,101095.97
2023-03-17T11:17:15.793Z,101074.19
2023-03-17T11:20:38.924Z,101066.84
2023-03-17T11:24:01.266Z,101058.22
2023-03-17T11:27:11.229Z,101057.66
2023-03-17T11:30:33.195Z,101058.44
2023-03-17T11:33:52.153Z,101054.06
2023-03-17T11:37:16.466Z,101044.88
2023-03-17T11:40:34.296Z,101028.53
2023-03-17T11:44:21.376Z,101038.62
2023-03-17T11:47:43.274Z,101028.59
2023-03-17T11:51:20.408Z,101034.34
2023-03-17T11:54:44.803Z,101025.50
2023-03-17T11:57:57.151Z,101021.69
2023-03-17T12:01:03.274Z,101009.22
2023-03-17T12:04:34.533Z,101002.28
2023-03-17T12:07:45.590Z,101006.03
2023-03-17T12:10:54.803Z,100999.34
2023-03-17T12:14:06.127Z,101000.69
2023-03-17T12:17:25.880Z,100993.66
2023-03-17T12:20:48.718Z,100993.47
2023-03-17T12:24:02.068Z,100990.28
2023-03-17T12:27:14.157Z,100976.34
2023-03-17T12:30:55.652Z,100976.84
2023-03-17T12:34:15.750Z,100978.81
2023-03-17T12:37:20.051Z,100976.31
2023-03-17T12:40:44.643Z,100980.41
2023-03-17T12:44:25.033Z,100977.31
2023-03-17T12:47:30.850Z,100965.25
2023-03-17T12:51:11.012Z,100965.38
2023-03-17T12:54:48.787Z,100978.09
2023-03-17T12:58:04.855Z,100948.63
2023-03-17T13:01:40.622Z,100947.50
2023-03-17T13:04:58.141Z,100949.91
2023-03-17T13:08:04.719Z,100948.72
2023-03-17T13:11:36.971Z,100943.44
2023-03-17T13:14:44.762Z,100947.50
2023-03-17T13:17:48.162Z,100945.09
2023-03-17T13:20:59.645Z,100935.94
2023-03-17T13:24:21.173Z,100943.84
2023-03-17T13:27:32.845Z,100942.72
2023-03-17T13:30:35.946Z,100936.38
2023-03-17T13:33:56.467Z,100929.81
2023-03-17T13:37:15.548Z,100925.00
2023-03-17T13:40:38.854Z,100934.91
2023-03-17T13:44:03.990Z,100915.72
2023-03-17T13:47:25.513Z,100899.22
2023-03-17T13:50:32.945Z,100889.00
2023-03-17T13:54:14.933Z,100895.81
2023-03-17T13:57:30.796Z,100886.47
2023-03-17T14:00:37.632Z,100880.16
2023-03-17T14:03:49.588Z,100879.84
2023-03-17T14:06:56.659Z,100875.25
2023-03-17T14:10:02.932Z,100882.50
2023-03-17T14:13:23.741Z,100872.00
2023-03-17T14:16:38.879Z,100861.97
2023-03-17T14:19:43.315Z,100864.34
2023-03-17T14:22:49.416Z,100866.28
2023-03-17T14:25:55.403Z,100853.81
2023-03-17T14:29:04.967Z,100860.09
2023-03-17T14:32:19.760Z,100852.22
2023-03-17T14:35:22.959Z,100843.59
2023-03-17T14:38:34.462Z,100835.06
2023-03-17T14:41:37.558Z,100827.28
2023-03-17T14:44:43.936Z,100838.41
2023-03-17T14:47:47.316Z,100830.63
2023-03-17T14:51:05.868Z,100822.06
2023-03-17T14:54:20.016Z,100809.53
2023-03-17T14:57:29.220Z,100813.19
2023-03-17T15:00:38.722Z,100799.56
2023-03-17T15:04:12.928Z,100795.31
2023-03-17T15:07:31.006Z,100796.63
2023-03-17T15:10:43.299Z,100791.81
2023-03-17T15:13:47.611Z,100803.22
2023-03-17T15:16:57.294Z,100798.53
2023-03-17T15:20:05.180Z,100794.44
2023-03-17T15:23:19.842Z,100789.75
2023-03-17T15:26:31.629Z,100795.56
2023-03-17T15:29:34.667Z,100790.94
2023-03-17T15:32:38.170Z,100795.66
2023-03-17T15:35:41.060Z,100795.41
2023-03-17T15:38:44.602Z,100787.97
2023-03-17T15:41:47.258Z,100793.28
2023-03-17T15:44:50.698Z,100793.19
2023-03-17T15:47:53.501Z,100793.81
2023-03-17T15:50:58.999Z,100791.50
2023-03-17T15:54:01.730Z,100782.91
2023-03-17T15:57:04.914Z,100780.59
2023-03-17T16:00:08.641Z,100783.53
2023-03-17T16:03:24.732Z,100793.00
2023-03-17T16:06:27.889Z,100787.62
2023-03-17T16:09:30.660Z,100792.34
2023-03-17T16:12:33.645Z,100781.41
2023-03-17T16:15:41.869Z,100786.78
2023-03-17T16:18:47.115Z,100781.94
2023-03-17T16:21:50.112Z,100779.56
2023-03-17T16:24:53.277Z,100781.00
2023-03-17T16:27:58.590Z,100787.94
2023-03-17T16:31:02.285Z,100774.16
2023-03-17T16:34:16.971Z,100794.50
2023-03-17T16:37:20.232Z,100795.34
2023-03-17T16:40:34.683Z,100783.25
2023-03-17T16:43:38.720Z,100789.63
2023-03-17T16:46:45.562Z,100792.06
2023-03-17T16:49:48.736Z,100796.00
2023-03-17T16:52:51.616Z,100785.19
2023-03-17T16:55:55.391Z,100789.56
2023-03-17T16:58:58.171Z,100792.34
2023-03-17T17:02:02.708Z,100786.81
2023-03-17T17:05:14.374Z,100787.59
2023-03-17T17:08:18.997Z,100786.91
2023-03-17T17:11:22.047Z,100796.53
2023-03-17T17:14:25.757Z,100792.78
2023-03-17T17:17:28.796Z,100785.59
2023-03-17T17:20:36.497Z,100791.34
2023-03-17T17:23:39.969Z,100781.81
2023-03-17T17:26:44.943Z,100776.03
2023-03-17T17:29:48.112Z,100772.56
2023-03-17T17:32:52.023Z,100772.31
2023-03-17T17:35:55.729Z,100769.06
2023-03-17T17:38:59.563Z,100779.50
2023-03-17T17:42:03.320Z,100779.59
2023-03-17T17:45:08.012Z,100776.37
2023-03-17T17:48:12.477Z,100783.81
2023-03-17T17:51:16.671Z,100779.78
2023-03-17T17:54:20.703Z,100796.31
2023-03-17T17:57:25.835Z,100788.12
2023-03-17T18:00:30.971Z,100788.34
2023-03-17T18:03:35.314Z,100784.28
2023-03-17T18:06:40.317Z,100786.47
2023-03-17T18:09:44.316Z,100797.00
2023-03-17T18:12:47.875Z,100797.91
2023-03-17T18:15:52.942Z,100791.62
2023-03-17T18:18:59.784Z,100785.84
2023-03-17T18:22:05.556Z,100780.34
2023-03-17T18:25:13.229Z,100782.13
2023-03-17T18:28:18.040Z,100779.75
2023-03-17T18:31:37.793Z,100776.31
2023-03-17T18:34:47.289Z,100779.06
2023-03-17T18:37:52.235Z,100782.56
2023-03-17T18:40:56.346Z,100788.88
2023-03-17T18:43:59.547Z,100790.97
2023-03-17T18:47:04.563Z,100784.50
2023-03-17T18:50:12.647Z,100782.25
2023-03-17T18:53:16.821Z,100787.00
2023-03-17T18:56:22.372Z,100787.50
2023-03-17T18:59:27.714Z,100784.47
2023-03-17T19:02:32.346Z,100781.22
2023-03-17T19:05:38.320Z,100772.50
2023-03-17T19:08:43.197Z,100779.28
2023-03-17T19:11:47.655Z,100769.88
2023-03-17T19:14:54.849Z,100768.31
2023-03-17T19:18:01.785Z,100764.88
2023-03-17T19:21:06.124Z,100765.56
2023-03-17T19:24:12.284Z,100764.94
2023-03-17T19:27:16.648Z,100758.31
2023-03-17T19:30:22.893Z,100753.91
2023-03-17T19:33:32.311Z,100751.19
2023-03-17T19:36:43.916Z,100764.94
2023-03-17T19:39:48.265Z,100749.72
2023-03-17T19:42:54.475Z,100754.88
2023-03-17T19:45:58.876Z,100751.66
2023-03-17T19:49:05.209Z,100751.91
2023-03-17T19:52:11.383Z,100745.75
2023-03-17T19:55:18.062Z,100749.78
2023-03-17T19:58:22.887Z,100741.38
2023-03-17T20:01:31.129Z,100744.81
2023-03-17T20:04:38.100Z,100745.22
2023-03-17T20:07:42.816Z,100732.81
2023-03-17T20:10:50.992Z,100744.66
2023-03-17T20:13:54.848Z,100736.44
2023-03-17T20:16:59.406Z,100727.81
2023-03-17T20:20:03.573Z,100731.06
2023-03-17T20:23:09.689Z,100732.56
2023-03-17T20:26:13.856Z,100733.06
2023-03-17T20:29:18.035Z,100737.63
2023-03-17T20:32:25.527Z,100732.97
2023-03-17T20:35:31.536Z,100729.94
2023-03-17T20:38:39.601Z,100723.47
2023-03-17T20:41:43.924Z,100727.50
2023-03-17T20:44:53.478Z,100730.00
2023-03-17T20:47:58.002Z,100722.50
2023-03-17T20:51:04.852Z,100726.88
2023-03-17T20:54:11.793Z,100731.75
2023-03-17T20:57:16.308Z,100736.09
2023-03-17T21:00:25.061Z,100731.22
2023-03-17T21:03:29.541Z,100723.91
2023-03-17T21:06:34.991Z,100721.50
2023-03-17T21:09:38.436Z,100722.16
2023-03-17T21:12:44.692Z,100719.84
2023-03-17T21:15:48.999Z,100727.38
2023-03-17T21:18:52.864Z,100740.00
2023-03-17T21:21:56.226Z,100739.22
2023-03-17T21:24:59.892Z,100731.63
2023-03-17T21:28:05.325Z,100734.72
2023-03-17T21:31:11.115Z,100732.16
2023-03-17T21:34:14.505Z,100729.56
2023-03-17T21:37:19.149Z,100717.44
2023-03-17T21:40:24.288Z,100724.59
2023-03-17T21:43:29.022Z,100720.19
2023-03-17T21:46:32.442Z,100719.75
2023-03-17T21:49:35.524Z,100733.66
2023-03-17T21:52:38.525Z,100726.56
2023-03-17T21:55:41.888Z,100730.88
2023-03-17T21:58:44.786Z,100722.03
2023-03-17T22:01:48.128Z,100726.56
2023-03-17T22:04:51.178Z,100727.88
2023-03-17T22:07:54.008Z,100725.28
2023-03-17T22:10:58.282Z,100731.41
2023-03-17T22:14:02.024Z,100723.00
2023-03-17T22:17:08.530Z,100721.87
2023-03-17T22:20:11.967Z,100719.28
2023-03-17T22:23:15.476Z,100731.28
2023-03-17T22:26:21.334Z,100724.66
2023-03-17T22:29:24.592Z,100724.19
2023-03-17T22:32:27.377Z,100713.81
2023-03-17T22:35:30.489Z,100704.91
2023-03-17T22:38:34.114Z,100708.50
2023-03-17T22:41:38.653Z,100692.66
2023-03-17T22:44:41.294Z,100693.47
2023-03-17T22:47:44.379Z,100705.75
2023-03-17T22:50:47.200Z,100696.53
2023-03-17T22:53:51.447Z,100701.22
2023-03-17T22:56:54.305Z,100691.03
2023-03-17T22:59:58.465Z,100693.47
2023-03-17T23:03:01.704Z,100695.09
2023-03-17T23:06:06.702Z,100694.25
2023-03-17T23:09:09.696Z,100701.53
2023-03-17T23:12:13.022Z,100705.94
2023-03-17T23:15:16.111Z,100701.06
2023-03-17T23:18:19.617Z,100702.53
2023-03-17T23:21:28.611Z,100696.72
2023-03-17T23:24:31.805Z,100702.38
2023-03-17T23:27:34.710Z,100697.50
2023-03-17T23:30:38.104Z,100702.38
2023-03-17T23:33:40.914Z,100697.19
2023-03-17T23:36:44.032Z,100704.66
2023-03-17T23:39:47.086Z,100695.91
2023-03-17T23:42:50.577Z,100702.84
2023-03-17T23:45:54.149Z,100703.53
2023-03-17T23:48:58.352Z,100698.34
2023-03-17T23:52:01.062Z,100692.69
2023-03-17T23:55:06.208Z,100704.66
2023-03-17T23:58:08.874Z,100701.25
